createdAt,value
2023-01-21T00:01:13.766Z,-2.35
2023-01-21T00:03:41.895Z,-2.39
2023-01-21T00:06:11.918Z,-2.39
2023-01-21T00:08:39.696Z,-2.34
2023-01-21T00:11:08.413Z,-2.29
2023-01-21T00:13:36.801Z,-2.23
2023-01-21T00:16:05.558Z,-2.28
2023-01-21T00:18:34.178Z,-2.27
2023-01-21T00:21:02.343Z,-2.34
2023-01-21T00:23:31.478Z,-2.26
2023-01-21T00:26:00.261Z,-2.24
2023-01-21T00:28:29.508Z,-2.24
2023-01-21T00:31:00.757Z,-2.28
2023-01-21T00:33:29.501Z,-2.19
2023-01-21T00:36:01.209Z,-2.13
2023-01-21T00:38:29.566Z,-2.09
2023-01-21T00:41:02.657Z,-2.16
2023-01-21T00:43:30.433Z,-2.28
2023-01-21T00:45:58.362Z,-2.30
2023-01-21T00:48:26.909Z,-2.23
2023-01-21T00:50:56.060Z,-2.16
2023-01-21T00:53:24.349Z,-2.03
2023-01-21T00:55:52.093Z,-2.00
2023-01-21T00:58:21.295Z,-2.06
2023-01-21T01:00:49.175Z,-2.03
2023-01-21T01:03:16.926Z,-2.15
2023-01-21T01:05:44.552Z,-2.14
2023-01-21T01:08:12.270Z,-2.13
2023-01-21T01:10:40.052Z,-2.06
2023-01-21T01:13:07.797Z,-2.16
2023-01-21T01:15:36.902Z,-2.25
2023-01-21T01:18:04.739Z,-2.24
2023-01-21T01:20:32.452Z,-2.19
2023-01-21T01:23:00.199Z,-2.20
2023-01-21T01:25:27.951Z,-2.14
2023-01-21T01:27:55.616Z,-2.24
2023-01-21T01:30:23.302Z,-2.36
2023-01-21T01:32:52.455Z,-2.21
2023-01-21T01:35:20.231Z,-2.15
2023-01-21T01:37:47.943Z,-2.16
2023-01-21T01:40:19.142Z,-2.09
2023-01-21T01:42:46.963Z,-2.04
2023-01-21T01:45:20.667Z,-2.13
2023-01-21T01:47:59.820Z,-2.04
2023-01-21T01:50:29.979Z,-2.16
2023-01-21T01:53:00.863Z,-2.08
2023-01-21T01:55:29.848Z,-2.18
2023-01-21T01:57:58.123Z,-2.08
2023-01-21T02:00:26.740Z,-2.21
2023-01-21T02:03:13.825Z,-2.19
2023-01-21T02:05:43.109Z,-2.12
2023-01-21T02:08:11.981Z,-2.01
2023-01-21T02:10:39.711Z,-2.04
2023-01-21T02:13:07.563Z,-2.05
2023-01-21T02:15:43.141Z,-2.32
2023-01-21T02:18:20.310Z,-2.27
2023-01-21T02:21:20.568Z,-2.26
2023-01-21T02:24:31.732Z,-2.34
2023-01-21T02:27:32.177Z,-2.36
2023-01-21T02:30:22.190Z,-2.34
2023-01-21T02:33:14.759Z,-2.39
2023-01-21T02:35:47.411Z,-2.33
2023-01-21T02:38:26.297Z,-2.28
2023-01-21T02:41:03.715Z,-2.35
2023-01-21T02:43:43.442Z,-2.39
2023-01-21T02:46:18.549Z,-2.40
2023-01-21T02:48:55.282Z,-2.33
2023-01-21T02:51:24.674Z,-2.29
2023-01-21T02:53:52.450Z,-2.38
2023-01-21T02:56:25.042Z,-2.35
2023-01-21T02:58:57.368Z,-2.30
2023-01-21T03:01:38.264Z,-2.28
2023-01-21T03:04:39.309Z,-2.26
2023-01-21T03:07:14.528Z,-2.33
2023-01-21T03:09:42.463Z,-2.30
2023-01-21T03:12:20.933Z,-2.31
2023-01-21T03:15:14.048Z,-2.36
2023-01-21T03:17:46.689Z,-2.44
2023-01-21T03:20:21.299Z,-2.40
2023-01-21T03:22:53.485Z,-2.37
2023-01-21T03:25:23.224Z,-2.35
2023-01-21T03:27:53.351Z,-2.25
2023-01-21T03:30:24.720Z,-2.20
2023-01-21T03:32:55.006Z,-2.25
2023-01-21T03:35:27.745Z,-2.27
2023-01-21T03:37:59.821Z,-2.21
2023-01-21T03:40:31.771Z,-2.23
2023-01-21T03:42:59.631Z,-2.13
2023-01-21T03:45:35.659Z,-2.19
2023-01-21T03:48:10.754Z,-2.04
2023-01-21T03:50:44.039Z,-2.13
2023-01-21T03:53:12.367Z,-2.14
2023-01-21T03:55:40.040Z,-2.17
2023-01-21T03:58:07.731Z,-2.12
2023-01-21T04:00:35.380Z,-2.09
2023-01-21T04:03:03.090Z,-2.07
2023-01-21T04:05:30.748Z,-2.02
2023-01-21T04:08:00.522Z,-2.03
2023-01-21T04:10:28.255Z,-1.99
2023-01-21T04:12:55.984Z,-2.11
2023-01-21T04:15:23.671Z,-2.03
2023-01-21T04:17:51.366Z,-2.00
2023-01-21T04:20:19.823Z,-1.98
2023-01-21T04:22:47.553Z,-1.84
2023-01-21T04:25:16.627Z,-1.85
2023-01-21T04:27:44.281Z,-1.95
2023-01-21T04:30:12.509Z,-1.91
2023-01-21T04:32:40.168Z,-1.89
2023-01-21T04:35:08.788Z,-1.89
2023-01-21T04:37:36.492Z,-1.87
2023-01-21T04:40:04.908Z,-1.86
2023-01-21T04:42:33.948Z,-1.87
2023-01-21T04:45:01.614Z,-1.86
2023-01-21T04:47:29.300Z,-1.82
2023-01-21T04:49:57.007Z,-1.83
2023-01-21T04:52:24.726Z,-1.78
2023-01-21T04:54:52.414Z,-1.82
2023-01-21T04:57:20.215Z,-1.83
2023-01-21T04:59:49.258Z,-1.89
2023-01-21T05:02:16.998Z,-1.90
2023-01-21T05:04:44.764Z,-1.85
2023-01-21T05:07:13.206Z,-1.91
2023-01-21T05:09:40.892Z,-1.93
2023-01-21T05:12:09.452Z,-1.95
2023-01-21T05:14:37.358Z,-1.85
2023-01-21T05:17:06.544Z,-1.95
2023-01-21T05:19:34.255Z,-1.93
2023-01-21T05:22:02.051Z,-1.89
2023-01-21T05:24:29.700Z,-1.88
2023-01-21T05:26:57.442Z,-1.90
2023-01-21T05:29:25.144Z,-1.89
2023-01-21T05:31:52.918Z,-1.86
2023-01-21T05:34:22.051Z,-1.88
2023-01-21T05:36:49.771Z,-1.90
2023-01-21T05:39:17.546Z,-1.79
2023-01-21T05:41:45.243Z,-1.84
2023-01-21T05:44:13.132Z,-1.83
2023-01-21T05:46:40.956Z,-1.84
2023-01-21T05:49:08.745Z,-1.86
2023-01-21T05:51:37.818Z,-1.90
2023-01-21T05:54:05.771Z,-1.90
2023-01-21T05:56:33.540Z,-1.93
2023-01-21T05:59:01.285Z,-1.94
2023-01-21T06:01:28.968Z,-1.86
2023-01-21T06:03:56.704Z,-1.86
2023-01-21T06:06:24.420Z,-1.77
2023-01-21T06:08:53.458Z,-1.75
2023-01-21T06:11:21.201Z,-1.75
2023-01-21T06:13:48.873Z,-1.72
2023-01-21T06:16:16.632Z,-1.82
2023-01-21T06:18:44.363Z,-1.72
2023-01-21T06:21:12.037Z,-1.74
2023-01-21T06:23:39.768Z,-1.71
2023-01-21T06:26:08.794Z,-1.77
2023-01-21T06:28:36.492Z,-1.70
2023-01-21T06:31:04.561Z,-1.74
2023-01-21T06:33:32.280Z,-1.71
2023-01-21T06:36:00.042Z,-1.73
2023-01-21T06:38:27.814Z,-1.73
2023-01-21T06:40:55.540Z,-1.76
2023-01-21T06:43:24.590Z,-1.66
2023-01-21T06:45:52.335Z,-1.64
2023-01-21T06:48:20.322Z,-1.77
2023-01-21T06:50:48.038Z,-1.72
2023-01-21T06:53:15.734Z,-1.81
2023-01-21T06:55:43.434Z,-1.80
2023-01-21T06:58:11.155Z,-1.80
2023-01-21T07:00:40.287Z,-1.74
2023-01-21T07:03:08.751Z,-1.78
2023-01-21T07:05:36.806Z,-1.70
2023-01-21T07:08:05.553Z,-1.73
2023-01-21T07:10:33.258Z,-1.70
2023-01-21T07:13:00.963Z,-1.61
2023-01-21T07:15:30.862Z,-1.67
2023-01-21T07:18:00.122Z,-1.58
2023-01-21T07:20:27.928Z,-1.64
2023-01-21T07:22:55.701Z,-1.62
2023-01-21T07:25:23.414Z,-1.54
2023-01-21T07:27:51.043Z,-1.57
2023-01-21T07:30:20.754Z,-1.64
2023-01-21T07:32:48.739Z,-1.57
2023-01-21T07:35:18.156Z,-1.61
2023-01-21T07:37:45.991Z,-1.54
2023-01-21T07:40:14.459Z,-1.55
2023-01-21T07:42:42.211Z,-1.51
2023-01-21T07:45:10.733Z,-1.52
2023-01-21T07:47:38.466Z,-1.43
2023-01-21T07:50:08.643Z,-1.44
2023-01-21T07:52:37.804Z,-1.39
2023-01-21T07:55:07.341Z,-1.49
2023-01-21T07:57:35.651Z,-1.35
2023-01-21T08:00:03.411Z,-1.46
2023-01-21T08:02:31.235Z,-1.49
2023-01-21T08:04:59.045Z,-1.56
2023-01-21T08:07:26.706Z,-1.45
2023-01-21T08:09:55.797Z,-1.37
2023-01-21T08:12:25.230Z,-1.37
2023-01-21T08:14:54.088Z,-1.48
2023-01-21T08:17:21.855Z,-1.30
2023-01-21T08:19:49.545Z,-1.25
2023-01-21T08:22:17.207Z,-1.31
2023-01-21T08:24:44.896Z,-1.21
2023-01-21T08:27:13.975Z,-1.19
2023-01-21T08:29:41.710Z,-1.11
2023-01-21T08:32:09.459Z,-1.05
2023-01-21T08:34:37.305Z,-0.97
2023-01-21T08:37:04.963Z,-1.05
2023-01-21T08:39:32.771Z,-0.99
2023-01-21T08:42:00.492Z,-1.02
2023-01-21T08:44:29.550Z,-0.92
2023-01-21T08:46:57.216Z,-0.94
2023-01-21T08:49:24.967Z,-0.87
2023-01-21T08:51:52.706Z,-0.95
2023-01-21T08:54:20.579Z,-0.91
2023-01-21T08:56:48.293Z,-0.89
2023-01-21T08:59:16.939Z,-0.75
2023-01-21T09:01:46.056Z,-0.77
2023-01-21T09:04:13.703Z,-0.61
2023-01-21T09:06:41.382Z,-0.73
2023-01-21T09:09:11.897Z,-0.58
2023-01-21T09:11:39.572Z,-0.55
2023-01-21T09:14:07.365Z,-0.40
2023-01-21T09:16:36.362Z,-0.40
2023-01-21T09:19:06.058Z,-0.30
2023-01-21T09:21:35.778Z,-0.26
2023-01-21T09:24:03.632Z,-0.12
2023-01-21T09:26:31.396Z,-0.04
2023-01-21T09:29:01.100Z,-0.02
2023-01-21T09:31:30.871Z,0.07
2023-01-21T09:34:00.437Z,0.07
2023-01-21T09:36:31.652Z,0.10
2023-01-21T09:38:59.840Z,0.04
2023-01-21T09:41:30.709Z,-0.06
2023-01-21T09:44:06.265Z,0.03
2023-01-21T09:46:40.006Z,0.13
2023-01-21T09:49:14.318Z,0.13
2023-01-21T09:51:50.224Z,0.07
2023-01-21T09:54:26.497Z,-0.05
2023-01-21T09:57:30.896Z,0.19
2023-01-21T10:00:19.018Z,0.13
2023-01-21T10:02:58.951Z,0.26
2023-01-21T10:06:00.113Z,0.27
2023-01-21T10:08:36.759Z,0.05
2023-01-21T10:11:22.203Z,0.24
2023-01-21T10:14:11.524Z,0.43
2023-01-21T10:16:46.397Z,0.14
2023-01-21T10:19:18.362Z,0.02
2023-01-21T10:21:51.759Z,-0.01
2023-01-21T10:24:25.733Z,0.11
2023-01-21T10:26:54.890Z,0.00
2023-01-21T10:29:26.678Z,0.10
2023-01-21T10:31:59.486Z,-0.13
2023-01-21T10:34:31.252Z,-0.18
2023-01-21T10:37:13.344Z,-0.43
2023-01-21T10:39:54.590Z,-0.46
2023-01-21T10:42:45.608Z,-0.35
2023-01-21T10:45:21.669Z,-0.27
2023-01-21T10:47:55.909Z,-0.35
2023-01-21T10:50:35.097Z,-0.31
2023-01-21T10:53:13.102Z,0.04
2023-01-21T10:55:51.580Z,-0.09
2023-01-21T10:58:28.101Z,-0.07
2023-01-21T11:00:59.673Z,-0.09
2023-01-21T11:03:35.811Z,-0.09
2023-01-21T11:06:06.959Z,-0.04
2023-01-21T11:08:34.906Z,-0.12
2023-01-21T11:11:04.300Z,-0.23
2023-01-21T11:13:32.037Z,-0.15
2023-01-21T11:16:01.999Z,-0.22
2023-01-21T11:18:34.271Z,-0.17
2023-01-21T11:21:04.870Z,-0.19
2023-01-21T11:23:34.803Z,-0.11
2023-01-21T11:26:07.701Z,0.02
2023-01-21T11:28:36.530Z,-0.16
2023-01-21T11:31:12.709Z,-0.27
2023-01-21T11:33:41.283Z,-0.22
2023-01-21T11:36:15.165Z,-0.13
2023-01-21T11:38:43.356Z,-0.06
2023-01-21T11:41:22.400Z,-0.12
2023-01-21T11:43:52.294Z,-0.27
2023-01-21T11:46:38.428Z,-0.09
2023-01-21T11:49:33.926Z,0.05
2023-01-21T11:52:16.079Z,-0.05
2023-01-21T11:54:44.213Z,0.11
2023-01-21T11:57:29.575Z,0.12
2023-01-21T12:00:01.430Z,0.11
2023-01-21T12:02:32.298Z,0.24
2023-01-21T12:05:04.558Z,0.25
2023-01-21T12:07:34.763Z,0.22
2023-01-21T12:10:08.388Z,0.17
2023-01-21T12:13:00.680Z,0.35
2023-01-21T12:15:43.377Z,0.30
2023-01-21T12:18:25.963Z,0.13
2023-01-21T12:21:03.308Z,0.30
2023-01-21T12:23:51.070Z,0.39
2023-01-21T12:26:32.304Z,0.12
2023-01-21T12:29:19.407Z,0.08
2023-01-21T12:31:53.204Z,0.18
2023-01-21T12:34:26.355Z,0.06
2023-01-21T12:36:59.299Z,-0.09
2023-01-21T12:39:30.148Z,0.09
2023-01-21T12:42:06.007Z,0.22
2023-01-21T12:44:40.363Z,0.06
2023-01-21T12:47:15.601Z,0.00
2023-01-21T12:49:54.585Z,0.26
2023-01-21T12:52:26.509Z,0.11
2023-01-21T12:55:00.378Z,0.15
2023-01-21T12:57:34.500Z,0.12
2023-01-21T13:00:14.093Z,0.05
2023-01-21T13:02:49.358Z,0.08
2023-01-21T13:05:22.858Z,-0.02
2023-01-21T13:07:57.849Z,-0.10
2023-01-21T13:10:30.040Z,-0.10
2023-01-21T13:13:02.579Z,-0.07
2023-01-21T13:15:34.719Z,-0.12
2023-01-21T13:18:06.703Z,-0.14
2023-01-21T13:20:40.279Z,-0.19
2023-01-21T13:23:14.559Z,-0.16
2023-01-21T13:25:49.262Z,-0.12
2023-01-21T13:28:24.989Z,-0.09
2023-01-21T13:31:02.947Z,-0.21
2023-01-21T13:33:36.961Z,-0.19
2023-01-21T13:36:17.153Z,-0.11
2023-01-21T13:38:53.326Z,-0.22
2023-01-21T13:41:36.881Z,-0.25
2023-01-21T13:44:31.768Z,-0.18
2023-01-21T13:47:13.352Z,-0.11
2023-01-21T13:49:56.670Z,-0.30
2023-01-21T13:52:29.868Z,-0.30
2023-01-21T13:55:24.487Z,-0.28
2023-01-21T13:58:03.286Z,-0.15
2023-01-21T14:00:34.653Z,-0.21
2023-01-21T14:03:10.912Z,-0.28
2023-01-21T14:05:42.430Z,-0.29
2023-01-21T14:08:15.229Z,-0.26
2023-01-21T14:10:49.036Z,-0.21
2023-01-21T14:13:36.222Z,-0.27
2023-01-21T14:16:25.979Z,-0.26
2023-01-21T14:19:09.615Z,-0.18
2023-01-21T14:22:08.176Z,-0.33
2023-01-21T14:24:50.485Z,-0.32
2023-01-21T14:27:29.292Z,-0.28
2023-01-21T14:30:05.646Z,-0.30
2023-01-21T14:32:41.527Z,-0.33
2023-01-21T14:35:21.003Z,-0.33
2023-01-21T14:37:56.522Z,-0.23
2023-01-21T14:40:30.005Z,-0.33
2023-01-21T14:42:57.830Z,-0.48
2023-01-21T14:45:52.509Z,-0.48
2023-01-21T14:48:32.404Z,-0.39
2023-01-21T14:51:12.186Z,-0.54
2023-01-21T14:53:46.181Z,-0.52
2023-01-21T14:56:24.108Z,-0.49
2023-01-21T14:58:55.077Z,-0.40
2023-01-21T15:01:29.464Z,-0.30
2023-01-21T15:04:00.665Z,-0.38
2023-01-21T15:06:28.510Z,-0.51
2023-01-21T15:08:59.897Z,-0.52
2023-01-21T15:11:32.632Z,-0.52
2023-01-21T15:14:11.150Z,-0.43
2023-01-21T15:16:40.329Z,-0.40
2023-01-21T15:19:25.018Z,-0.42
2023-01-21T15:22:23.156Z,-0.45
2023-01-21T15:25:21.464Z,-0.48
2023-01-21T15:28:36.611Z,-0.48
2023-01-21T15:31:06.524Z,-0.40
2023-01-21T15:33:39.935Z,-0.41
2023-01-21T15:36:21.072Z,-0.46
2023-01-21T15:38:50.406Z,-0.48
2023-01-21T15:41:27.853Z,-0.47
2023-01-21T15:44:11.854Z,-0.45
2023-01-21T15:46:47.984Z,-0.48
2023-01-21T15:49:44.094Z,-0.42
2023-01-21T15:52:31.627Z,-0.39
2023-01-21T15:55:16.212Z,-0.36
2023-01-21T15:57:51.879Z,-0.41
2023-01-21T16:00:31.153Z,-0.49
2023-01-21T16:03:22.256Z,-0.49
2023-01-21T16:06:00.370Z,-0.51
2023-01-21T16:08:47.708Z,-0.52
2023-01-21T16:11:28.426Z,-0.54
2023-01-21T16:14:04.393Z,-0.58
2023-01-21T16:16:48.090Z,-0.77
2023-01-21T16:19:18.121Z,-0.73
2023-01-21T16:21:50.158Z,-0.74
2023-01-21T16:24:24.690Z,-0.69
2023-01-21T16:26:52.399Z,-0.63
2023-01-21T16:29:20.061Z,-0.66
2023-01-21T16:31:52.652Z,-0.63
2023-01-21T16:34:40.084Z,-0.69
2023-01-21T16:37:08.044Z,-0.72
2023-01-21T16:39:37.288Z,-0.71
2023-01-21T16:42:07.605Z,-0.68
2023-01-21T16:44:36.618Z,-0.67
2023-01-21T16:47:04.765Z,-0.68
2023-01-21T16:49:34.484Z,-0.71
2023-01-21T16:52:04.114Z,-0.64
2023-01-21T16:54:33.615Z,-0.61
2023-01-21T16:57:04.034Z,-0.63
2023-01-21T16:59:39.346Z,-0.58
2023-01-21T17:02:18.505Z,-0.57
2023-01-21T17:04:46.409Z,-0.56
2023-01-21T17:07:17.364Z,-0.52
2023-01-21T17:09:45.200Z,-0.55
2023-01-21T17:12:23.400Z,-0.54
2023-01-21T17:14:57.149Z,-0.56
2023-01-21T17:17:26.348Z,-0.56
2023-01-21T17:19:55.552Z,-0.63
2023-01-21T17:22:24.619Z,-0.58
2023-01-21T17:25:03.481Z,-0.64
2023-01-21T17:27:33.350Z,-0.53
2023-01-21T17:30:34.913Z,-0.57
2023-01-21T17:33:03.589Z,-0.59
2023-01-21T17:35:33.441Z,-0.55
2023-01-21T17:38:02.614Z,-0.54
2023-01-21T17:40:33.604Z,-0.55
2023-01-21T17:43:16.428Z,-0.59
2023-01-21T17:45:46.810Z,-0.62
2023-01-21T17:48:24.916Z,-0.59
2023-01-21T17:50:53.309Z,-0.59
2023-01-21T17:53:26.050Z,-0.54
2023-01-21T17:55:59.955Z,-0.61
2023-01-21T17:58:53.625Z,-0.61
2023-01-21T18:01:22.187Z,-0.58
2023-01-21T18:03:50.275Z,-0.63
2023-01-21T18:06:22.821Z,-0.65
2023-01-21T18:08:53.084Z,-0.69
2023-01-21T18:11:22.632Z,-0.67
2023-01-21T18:13:52.841Z,-0.61
2023-01-21T18:16:22.280Z,-0.77
2023-01-21T18:18:50.510Z,-0.77
2023-01-21T18:21:20.496Z,-0.68
2023-01-21T18:23:48.954Z,-0.73
2023-01-21T18:26:23.598Z,-0.61
2023-01-21T18:28:51.348Z,-0.68
2023-01-21T18:31:19.174Z,-0.67
2023-01-21T18:33:48.280Z,-0.69
2023-01-21T18:36:16.019Z,-0.61
2023-01-21T18:38:43.732Z,-0.63
2023-01-21T18:41:13.412Z,-0.76
2023-01-21T18:43:42.168Z,-0.79
2023-01-21T18:46:13.215Z,-0.76
2023-01-21T18:48:42.752Z,-0.73
2023-01-21T18:51:13.742Z,-0.69
2023-01-21T18:53:41.423Z,-0.77
2023-01-21T18:56:13.594Z,-0.76
2023-01-21T18:58:41.390Z,-0.69
2023-01-21T19:01:22.128Z,-0.76
2023-01-21T19:03:53.470Z,-0.81
2023-01-21T19:06:24.646Z,-0.78
2023-01-21T19:08:52.461Z,-0.75
2023-01-21T19:11:20.436Z,-0.78
2023-01-21T19:13:48.104Z,-0.80
2023-01-21T19:16:18.386Z,-0.82
2023-01-21T19:18:46.507Z,-0.80
2023-01-21T19:21:14.260Z,-0.78
2023-01-21T19:23:43.464Z,-0.81
2023-01-21T19:26:14.674Z,-0.82
2023-01-21T19:28:42.670Z,-0.83
2023-01-21T19:31:10.595Z,-0.76
2023-01-21T19:33:39.812Z,-0.78
2023-01-21T19:36:15.876Z,-0.73
2023-01-21T19:38:49.622Z,-0.73
2023-01-21T19:41:17.385Z,-0.72
2023-01-21T19:43:46.121Z,-0.70
2023-01-21T19:46:14.158Z,-0.73
2023-01-21T19:48:41.975Z,-0.76
2023-01-21T19:51:10.291Z,-0.74
2023-01-21T19:53:38.079Z,-0.68
2023-01-21T19:56:08.126Z,-0.67
2023-01-21T19:58:36.032Z,-0.73
2023-01-21T20:01:03.831Z,-0.73
2023-01-21T20:03:31.551Z,-0.74
2023-01-21T20:06:03.115Z,-0.74
2023-01-21T20:08:32.825Z,-0.74
2023-01-21T20:11:00.652Z,-0.78
2023-01-21T20:13:32.168Z,-0.71
2023-01-21T20:16:03.779Z,-0.75
2023-01-21T20:18:33.395Z,-0.74
2023-01-21T20:21:01.183Z,-0.77
2023-01-21T20:23:31.074Z,-0.68
2023-01-21T20:26:00.884Z,-0.69
2023-01-21T20:28:38.548Z,-0.68
2023-01-21T20:31:08.005Z,-0.63
2023-01-21T20:33:36.757Z,-0.68
2023-01-21T20:36:06.976Z,-0.60
2023-01-21T20:38:36.754Z,-0.62
2023-01-21T20:41:06.182Z,-0.65
2023-01-21T20:43:35.317Z,-0.64
2023-01-21T20:46:05.783Z,-0.68
2023-01-21T20:48:37.010Z,-0.67
2023-01-21T20:51:05.416Z,-0.71
2023-01-21T20:53:33.165Z,-0.67
2023-01-21T20:56:03.448Z,-0.70
2023-01-21T20:58:33.047Z,-0.71
2023-01-21T21:01:02.121Z,-0.60
2023-01-21T21:03:29.829Z,-0.53
2023-01-21T21:05:57.514Z,-0.58
2023-01-21T21:08:25.224Z,-0.58
2023-01-21T21:10:52.978Z,-0.60
2023-01-21T21:13:20.638Z,-0.60
2023-01-21T21:15:50.584Z,-0.60
2023-01-21T21:18:19.627Z,-0.55
2023-01-21T21:20:47.306Z,-0.53
2023-01-21T21:23:15.702Z,-0.54
2023-01-21T21:25:45.611Z,-0.54
2023-01-21T21:28:15.482Z,-0.52
2023-01-21T21:30:44.290Z,-0.60
2023-01-21T21:33:17.974Z,-0.50
2023-01-21T21:35:47.394Z,-0.45
2023-01-21T21:38:17.534Z,-0.45
2023-01-21T21:40:47.556Z,-0.49
2023-01-21T21:43:32.355Z,-0.49
2023-01-21T21:46:22.291Z,-0.49
2023-01-21T21:48:51.456Z,-0.53
2023-01-21T21:51:22.165Z,-0.46
2023-01-21T21:53:50.252Z,-0.52
2023-01-21T21:56:19.860Z,-0.47
2023-01-21T21:58:48.300Z,-0.47
2023-01-21T22:01:18.687Z,-0.52
2023-01-21T22:03:47.167Z,-0.54
2023-01-21T22:06:15.750Z,-0.56
2023-01-21T22:08:45.672Z,-0.55
2023-01-21T22:11:16.309Z,-0.51
2023-01-21T22:13:45.133Z,-0.55
2023-01-21T22:16:15.509Z,-0.52
2023-01-21T22:18:43.654Z,-0.51
2023-01-21T22:21:15.096Z,-0.42
2023-01-21T22:23:44.492Z,-0.44
2023-01-21T22:26:14.455Z,-0.43
2023-01-21T22:28:43.908Z,-0.49
2023-01-21T22:31:17.526Z,-0.43
2023-01-21T22:33:45.659Z,-0.35
2023-01-21T22:36:15.954Z,-0.40
2023-01-21T22:38:46.093Z,-0.39
2023-01-21T22:41:17.076Z,-0.47
2023-01-21T22:43:48.075Z,-0.50
2023-01-21T22:46:18.733Z,-0.45
2023-01-21T22:48:46.750Z,-0.44
2023-01-21T22:51:16.445Z,-0.41
2023-01-21T22:53:45.623Z,-0.44
2023-01-21T22:56:15.193Z,-0.46
2023-01-21T22:58:43.358Z,-0.40
2023-01-21T23:01:21.722Z,-0.37
2023-01-21T23:03:49.492Z,-0.36
2023-01-21T23:06:17.195Z,-0.31
2023-01-21T23:08:46.517Z,-0.36
2023-01-21T23:11:16.160Z,-0.38
2023-01-21T23:13:44.543Z,-0.38
2023-01-21T23:16:15.952Z,-0.37
2023-01-21T23:18:43.696Z,-0.40
2023-01-21T23:21:15.359Z,-0.32
2023-01-21T23:23:43.059Z,-0.36
2023-01-21T23:26:12.495Z,-0.39
2023-01-21T23:28:40.530Z,-0.46
2023-01-21T23:31:10.563Z,-0.43
2023-01-21T23:33:39.958Z,-0.42
2023-01-21T23:36:09.452Z,-0.41
2023-01-21T23:38:37.174Z,-0.42
2023-01-21T23:41:07.067Z,-0.42
2023-01-21T23:43:37.028Z,-0.40
2023-01-21T23:46:06.506Z,-0.37
2023-01-21T23:48:34.310Z,-0.41
2023-01-21T23:51:05.683Z,-0.41
2023-01-21T23:53:34.935Z,-0.37
2023-01-21T23:56:07.238Z,-0.32
2023-01-21T23:58:36.735Z,-0.34
